sensor_id;sensor_type;location;lat;lon;timestamp;P1;durP1;ratioP1;P2;durP2;ratioP2
53022;SDS011;38913;44.338;11.206;2024-03-23T00:54:16;6.57;;;4.80;;
53022;SDS011;38913;44.338;11.206;2024-03-23T00:56:42;7.60;;;5.20;;
53022;SDS011;38913;44.338;11.206;2024-03-23T00:59:09;6.75;;;5.80;;
53022;SDS011;38913;44.338;11.206;2024-03-23T01:01:35;7.17;;;4.23;;
53022;SDS011;38913;44.338;11.206;2024-03-23T01:04:00;7.07;;;4.72;;
53022;SDS011;38913;44.338;11.206;2024-03-23T01:06:27;6.68;;;4.57;;
53022;SDS011;38913;44.338;11.206;2024-03-23T01:08:54;6.63;;;4.63;;
53022;SDS011;38913;44.338;11.206;2024-03-23T01:11:20;6.15;;;4.45;;
53022;SDS011;38913;44.338;11.206;2024-03-23T01:13:46;7.22;;;4.80;;
53022;SDS011;38913;44.338;11.206;2024-03-23T01:16:13;6.28;;;4.97;;
53022;SDS011;38913;44.338;11.206;2024-03-23T01:18:38;6.63;;;4.57;;
53022;SDS011;38913;44.338;11.206;2024-03-23T01:21:04;6.83;;;5.00;;
53022;SDS011;38913;44.338;11.206;2024-03-23T01:23:31;7.88;;;5.07;;
53022;SDS011;38913;44.338;11.206;2024-03-23T01:25:57;6.78;;;4.22;;
53022;SDS011;38913;44.338;11.206;2024-03-23T01:28:22;6.60;;;4.85;;
53022;SDS011;38913;44.338;11.206;2024-03-23T01:30:51;5.47;;;4.47;;
53022;SDS011;38913;44.338;11.206;2024-03-23T01:33:17;6.05;;;4.63;;
53022;SDS011;38913;44.338;11.206;2024-03-23T01:35:43;6.55;;;4.68;;
53022;SDS011;38913;44.338;11.206;2024-03-23T01:38:08;5.97;;;4.97;;
53022;SDS011;38913;44.338;11.206;2024-03-23T01:40:35;7.28;;;4.70;;
53022;SDS011;38913;44.338;11.206;2024-03-23T01:43:04;6.18;;;4.57;;
53022;SDS011;38913;44.338;11.206;2024-03-23T01:45:31;7.43;;;4.30;;
53022;SDS011;38913;44.338;11.206;2024-03-23T01:47:59;5.97;;;4.47;;
53022;SDS011;38913;44.338;11.206;2024-03-23T01:50:27;5.25;;;4.53;;
53022;SDS011;38913;44.338;11.206;2024-03-23T01:52:53;6.10;;;4.18;;
53022;SDS011;38913;44.338;11.206;2024-03-23T01:55:20;7.35;;;4.70;;
53022;SDS011;38913;44.338;11.206;2024-03-23T01:57:46;6.30;;;4.57;;
53022;SDS011;38913;44.338;11.206;2024-03-23T02:00:11;7.43;;;4.35;;
53022;SDS011;38913;44.338;11.206;2024-03-23T02:02:43;6.93;;;4.80;;
53022;SDS011;38913;44.338;11.206;2024-03-23T02:05:10;6.28;;;4.47;;
53022;SDS011;38913;44.338;11.206;2024-03-23T02:07:41;6.10;;;4.57;;
53022;SDS011;38913;44.338;11.206;2024-03-23T02:10:09;6.85;;;4.38;;
53022;SDS011;38913;44.338;11.206;2024-03-23T02:12:35;7.53;;;4.60;;
53022;SDS011;38913;44.338;11.206;2024-03-23T02:15:00;5.35;;;4.38;;
53022;SDS011;38913;44.338;11.206;2024-03-23T02:17:25;6.53;;;4.80;;
53022;SDS011;38913;44.338;11.206;2024-03-23T02:19:52;6.22;;;4.68;;
53022;SDS011;38913;44.338;11.206;2024-03-23T02:22:19;7.07;;;4.90;;
53022;SDS011;38913;44.338;11.206;2024-03-23T02:24:44;8.73;;;4.93;;
53022;SDS011;38913;44.338;11.206;2024-03-23T02:27:12;6.35;;;4.78;;
53022;SDS011;38913;44.338;11.206;2024-03-23T02:29:38;6.90;;;4.97;;
53022;SDS011;38913;44.338;11.206;2024-03-23T02:32:04;6.70;;;4.47;;
53022;SDS011;38913;44.338;11.206;2024-03-23T02:34:31;5.13;;;4.63;;
53022;SDS011;38913;44.338;11.206;2024-03-23T02:36:57;5.35;;;4.32;;
53022;SDS011;38913;44.338;11.206;2024-03-23T02:39:23;8.23;;;4.90;;
53022;SDS011;38913;44.338;11.206;2024-03-23T02:41:53;9.05;;;4.53;;
53022;SDS011;38913;44.338;11.206;2024-03-23T02:44:20;6.60;;;4.60;;
53022;SDS011;38913;44.338;11.206;2024-03-23T02:46:46;7.38;;;4.68;;
53022;SDS011;38913;44.338;11.206;2024-03-23T02:49:13;7.05;;;4.60;;
53022;SDS011;38913;44.338;11.206;2024-03-23T02:51:43;5.68;;;4.00;;
53022;SDS011;38913;44.338;11.206;2024-03-23T02:54:11;6.15;;;4.70;;
53022;SDS011;38913;44.338;11.206;2024-03-23T02:56:37;6.82;;;4.60;;
53022;SDS011;38913;44.338;11.206;2024-03-23T02:59:04;7.18;;;4.57;;
53022;SDS011;38913;44.338;11.206;2024-03-23T03:01:30;6.28;;;4.57;;
53022;SDS011;38913;44.338;11.206;2024-03-23T03:03:57;7.07;;;4.65;;
53022;SDS011;38913;44.338;11.206;2024-03-23T03:06:26;6.28;;;4.53;;
53022;SDS011;38913;44.338;11.206;2024-03-23T03:08:53;7.03;;;4.70;;
53022;SDS011;38913;44.338;11.206;2024-03-23T03:11:19;6.63;;;4.53;;
53022;SDS011;38913;44.338;11.206;2024-03-23T03:13:46;6.72;;;4.53;;
53022;SDS011;38913;44.338;11.206;2024-03-23T03:16:11;6.70;;;4.50;;
53022;SDS011;38913;44.338;11.206;2024-03-23T03:18:38;6.40;;;4.60;;
53022;SDS011;38913;44.338;11.206;2024-03-23T03:21:04;5.85;;;4.13;;
53022;SDS011;38913;44.338;11.206;2024-03-23T03:23:35;5.45;;;4.47;;
53022;SDS011;38913;44.338;11.206;2024-03-23T03:26:01;4.78;;;4.22;;
53022;SDS011;38913;44.338;11.206;2024-03-23T03:28:27;5.93;;;4.47;;
53022;SDS011;38913;44.338;11.206;2024-03-23T03:30:57;5.47;;;4.05;;
53022;SDS011;38913;44.338;11.206;2024-03-23T03:33:22;5.25;;;4.40;;
53022;SDS011;38913;44.338;11.206;2024-03-23T03:35:47;7.00;;;4.97;;
53022;SDS011;38913;44.338;11.206;2024-03-23T03:38:13;5.97;;;4.50;;
53022;SDS011;38913;44.338;11.206;2024-03-23T03:40:41;5.93;;;4.38;;
53022;SDS011;38913;44.338;11.206;2024-03-23T03:43:08;5.38;;;4.25;;
53022;SDS011;38913;44.338;11.206;2024-03-23T03:45:34;6.80;;;4.82;;
53022;SDS011;38913;44.338;11.206;2024-03-23T03:47:59;6.72;;;4.68;;
53022;SDS011;38913;44.338;11.206;2024-03-23T03:50:26;6.37;;;4.73;;
53022;SDS011;38913;44.338;11.206;2024-03-23T03:52:52;6.78;;;4.70;;
53022;SDS011;38913;44.338;11.206;2024-03-23T03:55:19;8.10;;;4.60;;
53022;SDS011;38913;44.338;11.206;2024-03-23T03:57:49;6.40;;;4.70;;
53022;SDS011;38913;44.338;11.206;2024-03-23T04:00:14;6.05;;;4.80;;
53022;SDS011;38913;44.338;11.206;2024-03-23T04:02:42;7.65;;;4.72;;
53022;SDS011;38913;44.338;11.206;2024-03-23T04:05:07;6.68;;;4.28;;
53022;SDS011;38913;44.338;11.206;2024-03-23T04:07:34;8.18;;;4.72;;
53022;SDS011;38913;44.338;11.206;2024-03-23T04:10:01;7.25;;;4.72;;
53022;SDS011;38913;44.338;11.206;2024-03-23T04:12:28;7.13;;;4.53;;
53022;SDS011;38913;44.338;11.206;2024-03-23T04:14:57;7.60;;;5.13;;
53022;SDS011;38913;44.338;11.206;2024-03-23T04:17:23;6.28;;;4.50;;
53022;SDS011;38913;44.338;11.206;2024-03-23T04:19:50;8.10;;;5.15;;
53022;SDS011;38913;44.338;11.206;2024-03-23T04:22:17;6.90;;;4.75;;
53022;SDS011;38913;44.338;11.206;2024-03-23T04:24:44;6.32;;;5.00;;
53022;SDS011;38913;44.338;11.206;2024-03-23T04:27:12;5.88;;;4.47;;
53022;SDS011;38913;44.338;11.206;2024-03-23T04:29:39;5.83;;;4.07;;
53022;SDS011;38913;44.338;11.206;2024-03-23T04:32:04;6.47;;;4.30;;
53022;SDS011;38913;44.338;11.206;2024-03-23T04:34:31;5.38;;;4.15;;
53022;SDS011;38913;44.338;11.206;2024-03-23T04:36:59;6.55;;;4.22;;
53022;SDS011;38913;44.338;11.206;2024-03-23T04:39:25;7.05;;;4.20;;
53022;SDS011;38913;44.338;11.206;2024-03-23T04:41:51;6.60;;;4.30;;
53022;SDS011;38913;44.338;11.206;2024-03-23T04:44:18;7.65;;;4.78;;
53022;SDS011;38913;44.338;11.206;2024-03-23T04:46:44;6.13;;;4.38;;
53022;SDS011;38913;44.338;11.206;2024-03-23T04:49:11;5.45;;;4.00;;
53022;SDS011;38913;44.338;11.206;2024-03-23T04:51:37;6.40;;;4.72;;
53022;SDS011;38913;44.338;11.206;2024-03-23T04:54:04;6.13;;;4.40;;
53022;SDS011;38913;44.338;11.206;2024-03-23T04:56:30;6.30;;;4.60;;
53022;SDS011;38913;44.338;11.206;2024-03-23T04:58:58;6.97;;;4.28;;
53022;SDS011;38913;44.338;11.206;2024-03-23T05:01:32;5.80;;;3.80;;
53022;SDS011;38913;44.338;11.206;2024-03-23T05:03:59;6.70;;;4.50;;
53022;SDS011;38913;44.338;11.206;2024-03-23T05:06:25;5.75;;;4.30;;
53022;SDS011;38913;44.338;11.206;2024-03-23T05:08:52;7.45;;;4.57;;
53022;SDS011;38913;44.338;11.206;2024-03-23T05:11:18;6.47;;;4.80;;
53022;SDS011;38913;44.338;11.206;2024-03-23T05:13:45;5.88;;;4.32;;
53022;SDS011;38913;44.338;11.206;2024-03-23T05:16:10;5.90;;;4.00;;
53022;SDS011;38913;44.338;11.206;2024-03-23T05:18:37;5.95;;;4.30;;
53022;SDS011;38913;44.338;11.206;2024-03-23T05:21:03;6.20;;;4.43;;
53022;SDS011;38913;44.338;11.206;2024-03-23T05:23:30;5.93;;;4.47;;
53022;SDS011;38913;44.338;11.206;2024-03-23T05:25:55;6.30;;;4.32;;
53022;SDS011;38913;44.338;11.206;2024-03-23T05:28:22;6.75;;;5.15;;
53022;SDS011;38913;44.338;11.206;2024-03-23T05:30:54;6.55;;;4.78;;
53022;SDS011;38913;44.338;11.206;2024-03-23T05:33:24;4.78;;;4.10;;
53022;SDS011;38913;44.338;11.206;2024-03-23T05:36:00;5.50;;;4.30;;
53022;SDS011;38913;44.338;11.206;2024-03-23T05:38:25;6.13;;;4.60;;
53022;SDS011;38913;44.338;11.206;2024-03-23T05:40:57;5.88;;;4.78;;
53022;SDS011;38913;44.338;11.206;2024-03-23T05:43:24;5.78;;;4.20;;
53022;SDS011;38913;44.338;11.206;2024-03-23T05:45:59;5.13;;;4.25;;
53022;SDS011;38913;44.338;11.206;2024-03-23T05:48:25;5.77;;;4.10;;
53022;SDS011;38913;44.338;11.206;2024-03-23T05:50:51;8.38;;;5.43;;
53022;SDS011;38913;44.338;11.206;2024-03-23T05:53:18;6.18;;;4.22;;
53022;SDS011;38913;44.338;11.206;2024-03-23T05:56:06;5.43;;;4.18;;
53022;SDS011;38913;44.338;11.206;2024-03-23T05:58:33;5.05;;;4.07;;
53022;SDS011;38913;44.338;11.206;2024-03-23T06:00:59;7.05;;;4.05;;
53022;SDS011;38913;44.338;11.206;2024-03-23T06:03:28;5.78;;;4.50;;
53022;SDS011;38913;44.338;11.206;2024-03-23T06:05:55;4.40;;;3.60;;
53022;SDS011;38913;44.338;11.206;2024-03-23T06:08:22;7.53;;;4.15;;
53022;SDS011;38913;44.338;11.206;2024-03-23T06:10:48;4.90;;;3.67;;
53022;SDS011;38913;44.338;11.206;2024-03-23T06:13:15;6.15;;;3.58;;
53022;SDS011;38913;44.338;11.206;2024-03-23T06:15:42;4.25;;;3.70;;
53022;SDS011;38913;44.338;11.206;2024-03-23T06:18:08;3.80;;;3.33;;
53022;SDS011;38913;44.338;11.206;2024-03-23T06:20:35;3.92;;;3.28;;
53022;SDS011;38913;44.338;11.206;2024-03-23T06:23:01;5.30;;;4.10;;
53022;SDS011;38913;44.338;11.206;2024-03-23T06:25:31;4.97;;;3.78;;
53022;SDS011;38913;44.338;11.206;2024-03-23T06:27:57;4.80;;;3.47;;
53022;SDS011;38913;44.338;11.206;2024-03-23T06:30:25;4.30;;;3.53;;
53022;SDS011;38913;44.338;11.206;2024-03-23T06:32:53;4.13;;;3.72;;
53022;SDS011;38913;44.338;11.206;2024-03-23T06:35:20;4.25;;;3.50;;
53022;SDS011;38913;44.338;11.206;2024-03-23T06:37:46;4.35;;;3.33;;
53022;SDS011;38913;44.338;11.206;2024-03-23T06:40:12;4.10;;;3.60;;
53022;SDS011;38913;44.338;11.206;2024-03-23T06:42:39;4.22;;;3.72;;
53022;SDS011;38913;44.338;11.206;2024-03-23T06:45:05;3.80;;;3.30;;
53022;SDS011;38913;44.338;11.206;2024-03-23T06:47:31;3.92;;;3.22;;
53022;SDS011;38913;44.338;11.206;2024-03-23T06:49:59;4.43;;;3.80;;
53022;SDS011;38913;44.338;11.206;2024-03-23T06:52:29;6.28;;;3.63;;
53022;SDS011;38913;44.338;11.206;2024-03-23T06:55:04;4.97;;;3.38;;
53022;SDS011;38913;44.338;11.206;2024-03-23T06:57:32;3.85;;;3.15;;
53022;SDS011;38913;44.338;11.206;2024-03-23T06:59:57;3.72;;;3.20;;
53022;SDS011;38913;44.338;11.206;2024-03-23T07:02:24;4.13;;;3.22;;
53022;SDS011;38913;44.338;11.206;2024-03-23T07:04:50;3.78;;;3.30;;
53022;SDS011;38913;44.338;11.206;2024-03-23T07:07:15;3.85;;;3.28;;
53022;SDS011;38913;44.338;11.206;2024-03-23T07:09:42;5.23;;;3.57;;
53022;SDS011;38913;44.338;11.206;2024-03-23T07:12:08;5.07;;;3.88;;
53022;SDS011;38913;44.338;11.206;2024-03-23T07:14:36;3.90;;;3.50;;
53022;SDS011;38913;44.338;11.206;2024-03-23T07:17:02;3.67;;;3.38;;
53022;SDS011;38913;44.338;11.206;2024-03-23T07:19:29;6.40;;;3.60;;
53022;SDS011;38913;44.338;11.206;2024-03-23T07:21:55;5.93;;;4.18;;
53022;SDS011;38913;44.338;11.206;2024-03-23T07:24:23;4.57;;;3.72;;
53022;SDS011;38913;44.338;11.206;2024-03-23T07:26:50;5.82;;;4.00;;
53022;SDS011;38913;44.338;11.206;2024-03-23T07:29:17;4.05;;;3.47;;
53022;SDS011;38913;44.338;11.206;2024-03-23T07:31:44;4.50;;;3.70;;
53022;SDS011;38913;44.338;11.206;2024-03-23T07:34:10;4.43;;;4.03;;
53022;SDS011;38913;44.338;11.206;2024-03-23T07:36:37;5.43;;;4.15;;
53022;SDS011;38913;44.338;11.206;2024-03-23T07:39:04;4.40;;;4.00;;
53022;SDS011;38913;44.338;11.206;2024-03-23T07:41:29;4.68;;;4.05;;
53022;SDS011;38913;44.338;11.206;2024-03-23T07:43:57;5.88;;;4.50;;
53022;SDS011;38913;44.338;11.206;2024-03-23T07:46:24;5.22;;;4.15;;
53022;SDS011;38913;44.338;11.206;2024-03-23T07:48:52;4.75;;;4.03;;
53022;SDS011;38913;44.338;11.206;2024-03-23T07:51:18;4.50;;;4.10;;
53022;SDS011;38913;44.338;11.206;2024-03-23T07:53:45;5.60;;;4.28;;
53022;SDS011;38913;44.338;11.206;2024-03-23T07:58:48;5.40;;;4.63;;
53022;SDS011;38913;44.338;11.206;2024-03-23T08:01:15;5.15;;;3.65;;
53022;SDS011;38913;44.338;11.206;2024-03-23T08:03:43;6.78;;;4.93;;
53022;SDS011;38913;44.338;11.206;2024-03-23T08:06:15;6.90;;;4.72;;
53022;SDS011;38913;44.338;11.206;2024-03-23T08:08:43;7.90;;;3.40;;
53022;SDS011;38913;44.338;11.206;2024-03-23T08:11:09;5.85;;;3.80;;
53022;SDS011;38913;44.338;11.206;2024-03-23T08:13:35;5.28;;;4.18;;
53022;SDS011;38913;44.338;11.206;2024-03-23T08:16:01;5.78;;;3.92;;
53022;SDS011;38913;44.338;11.206;2024-03-23T08:18:26;6.55;;;4.85;;
53022;SDS011;38913;44.338;11.206;2024-03-23T08:20:59;6.10;;;4.57;;
53022;SDS011;38913;44.338;11.206;2024-03-23T08:23:25;5.85;;;4.80;;
53022;SDS011;38913;44.338;11.206;2024-03-23T08:25:52;5.60;;;4.63;;
53022;SDS011;38913;44.338;11.206;2024-03-23T08:28:23;5.15;;;4.47;;
53022;SDS011;38913;44.338;11.206;2024-03-23T08:30:50;5.00;;;4.18;;
53022;SDS011;38913;44.338;11.206;2024-03-23T08:33:16;5.13;;;4.63;;
53022;SDS011;38913;44.338;11.206;2024-03-23T08:35:41;6.10;;;4.57;;
53022;SDS011;38913;44.338;11.206;2024-03-23T08:38:06;6.18;;;5.35;;
53022;SDS011;38913;44.338;11.206;2024-03-23T08:40:33;5.10;;;4.43;;
53022;SDS011;38913;44.338;11.206;2024-03-23T08:42:58;7.35;;;4.90;;
53022;SDS011;38913;44.338;11.206;2024-03-23T08:45:25;5.25;;;4.30;;
53022;SDS011;38913;44.338;11.206;2024-03-23T08:47:51;6.20;;;4.80;;
53022;SDS011;38913;44.338;11.206;2024-03-23T08:50:17;6.07;;;4.72;;
53022;SDS011;38913;44.338;11.206;2024-03-23T08:52:42;5.82;;;4.60;;
53022;SDS011;38913;44.338;11.206;2024-03-23T08:55:07;5.30;;;4.60;;
53022;SDS011;38913;44.338;11.206;2024-03-23T08:57:34;6.90;;;4.82;;
53022;SDS011;38913;44.338;11.206;2024-03-23T09:00:02;6.45;;;4.97;;
53022;SDS011;38913;44.338;11.206;2024-03-23T09:02:37;7.60;;;5.68;;
53022;SDS011;38913;44.338;11.206;2024-03-23T09:05:04;6.68;;;4.82;;
53022;SDS011;38913;44.338;11.206;2024-03-23T09:07:30;6.30;;;5.20;;
53022;SDS011;38913;44.338;11.206;2024-03-23T09:09:57;6.15;;;5.20;;
53022;SDS011;38913;44.338;11.206;2024-03-23T09:12:22;6.75;;;4.95;;
53022;SDS011;38913;44.338;11.206;2024-03-23T09:14:49;7.40;;;5.47;;
53022;SDS011;38913;44.338;11.206;2024-03-23T09:17:16;7.07;;;5.40;;
53022;SDS011;38913;44.338;11.206;2024-03-23T09:19:43;5.93;;;4.85;;
53022;SDS011;38913;44.338;11.206;2024-03-23T09:22:09;5.63;;;4.53;;
53022;SDS011;38913;44.338;11.206;2024-03-23T09:24:36;5.30;;;3.33;;
53022;SDS011;38913;44.338;11.206;2024-03-23T09:27:03;5.00;;;3.35;;
53022;SDS011;38913;44.338;11.206;2024-03-23T09:29:29;5.15;;;4.47;;
53022;SDS011;38913;44.338;11.206;2024-03-23T09:31:55;5.40;;;3.07;;
53022;SDS011;38913;44.338;11.206;2024-03-23T09:34:21;5.18;;;4.28;;
53022;SDS011;38913;44.338;11.206;2024-03-23T09:36:51;4.97;;;3.88;;
53022;SDS011;38913;44.338;11.206;2024-03-23T09:39:16;5.60;;;3.72;;
53022;SDS011;38913;44.338;11.206;2024-03-23T09:41:43;5.65;;;4.63;;
53022;SDS011;38913;44.338;11.206;2024-03-23T09:44:08;6.00;;;4.20;;
53022;SDS011;38913;44.338;11.206;2024-03-23T09:46:34;4.65;;;3.83;;
53022;SDS011;38913;44.338;11.206;2024-03-23T09:49:03;4.28;;;2.58;;
53022;SDS011;38913;44.338;11.206;2024-03-23T09:51:37;6.00;;;4.07;;
53022;SDS011;38913;44.338;11.206;2024-03-23T09:54:09;3.45;;;3.05;;
53022;SDS011;38913;44.338;11.206;2024-03-23T09:56:35;6.30;;;4.07;;
53022;SDS011;38913;44.338;11.206;2024-03-23T09:59:05;5.22;;;3.85;;
53022;SDS011;38913;44.338;11.206;2024-03-23T10:01:31;5.25;;;3.63;;
53022;SDS011;38913;44.338;11.206;2024-03-23T10:03:57;6.05;;;4.40;;
53022;SDS011;38913;44.338;11.206;2024-03-23T10:06:22;7.20;;;3.90;;
53022;SDS011;38913;44.338;11.206;2024-03-23T10:08:53;7.68;;;3.67;;
53022;SDS011;38913;44.338;11.206;2024-03-23T10:11:21;4.32;;;2.53;;
53022;SDS011;38913;44.338;11.206;2024-03-23T10:13:47;6.65;;;3.75;;
53022;SDS011;38913;44.338;11.206;2024-03-23T10:16:23;5.82;;;3.03;;
53022;SDS011;38913;44.338;11.206;2024-03-23T10:18:50;5.88;;;4.18;;
53022;SDS011;38913;44.338;11.206;2024-03-23T10:21:16;4.47;;;3.97;;
53022;SDS011;38913;44.338;11.206;2024-03-23T10:23:44;5.93;;;3.55;;
53022;SDS011;38913;44.338;11.206;2024-03-23T10:28:56;4.75;;;4.00;;
53022;SDS011;38913;44.338;11.206;2024-03-23T10:31:25;4.50;;;3.40;;
53022;SDS011;38913;44.338;11.206;2024-03-23T10:33:52;4.30;;;3.57;;
53022;SDS011;38913;44.338;11.206;2024-03-23T10:36:21;3.95;;;3.35;;
53022;SDS011;38913;44.338;11.206;2024-03-23T10:38:49;3.75;;;3.45;;
53022;SDS011;38913;44.338;11.206;2024-03-23T10:41:16;6.30;;;3.50;;
53022;SDS011;38913;44.338;11.206;2024-03-23T10:43:43;4.28;;;2.88;;
53022;SDS011;38913;44.338;11.206;2024-03-23T10:46:10;4.70;;;3.58;;
53022;SDS011;38913;44.338;11.206;2024-03-23T10:48:36;5.25;;;3.20;;
53022;SDS011;38913;44.338;11.206;2024-03-23T10:51:02;5.77;;;3.53;;
53022;SDS011;38913;44.338;11.206;2024-03-23T10:53:29;5.47;;;4.05;;
53022;SDS011;38913;44.338;11.206;2024-03-23T10:55:56;5.82;;;3.58;;
53022;SDS011;38913;44.338;11.206;2024-03-23T10:58:24;5.20;;;3.83;;
53022;SDS011;38913;44.338;11.206;2024-03-23T11:00:52;4.90;;;3.85;;
53022;SDS011;38913;44.338;11.206;2024-03-23T11:04:06;5.03;;;3.97;;
53022;SDS011;38913;44.338;11.206;2024-03-23T11:06:09;3.92;;;3.15;;
53022;SDS011;38913;44.338;11.206;2024-03-23T11:08:37;5.00;;;3.72;;
53022;SDS011;38913;44.338;11.206;2024-03-23T11:11:22;4.32;;;3.40;;
53022;SDS011;38913;44.338;11.206;2024-03-23T11:13:50;4.97;;;3.90;;
53022;SDS011;38913;44.338;11.206;2024-03-23T11:16:25;5.03;;;3.85;;
53022;SDS011;38913;44.338;11.206;2024-03-23T11:21:56;5.40;;;3.60;;
53022;SDS011;38913;44.338;11.206;2024-03-23T11:24:23;4.93;;;3.55;;
53022;SDS011;38913;44.338;11.206;2024-03-23T11:26:51;4.30;;;3.80;;
53022;SDS011;38913;44.338;11.206;2024-03-23T11:29:18;5.28;;;3.38;;
53022;SDS011;38913;44.338;11.206;2024-03-23T11:31:50;4.32;;;3.20;;
53022;SDS011;38913;44.338;11.206;2024-03-23T11:34:20;4.43;;;3.70;;
53022;SDS011;38913;44.338;11.206;2024-03-23T11:36:46;5.68;;;3.30;;
53022;SDS011;38913;44.338;11.206;2024-03-23T11:39:19;6.07;;;3.90;;
53022;SDS011;38913;44.338;11.206;2024-03-23T11:41:56;4.78;;;3.33;;
53022;SDS011;38913;44.338;11.206;2024-03-23T11:44:23;4.22;;;2.80;;
53022;SDS011;38913;44.338;11.206;2024-03-23T11:46:52;3.25;;;2.70;;
53022;SDS011;38913;44.338;11.206;2024-03-23T11:49:27;4.82;;;3.00;;
53022;SDS011;38913;44.338;11.206;2024-03-23T11:51:55;4.03;;;3.17;;
53022;SDS011;38913;44.338;11.206;2024-03-23T11:54:23;3.20;;;2.80;;
53022;SDS011;38913;44.338;11.206;2024-03-23T11:56:59;5.85;;;3.70;;
53022;SDS011;38913;44.338;11.206;2024-03-23T12:02:09;5.25;;;3.78;;
53022;SDS011;38913;44.338;11.206;2024-03-23T12:04:37;3.53;;;2.75;;
53022;SDS011;38913;44.338;11.206;2024-03-23T12:07:19;5.57;;;3.53;;
53022;SDS011;38913;44.338;11.206;2024-03-23T12:10:02;3.83;;;2.95;;
53022;SDS011;38913;44.338;11.206;2024-03-23T12:12:29;4.25;;;3.08;;
53022;SDS011;38913;44.338;11.206;2024-03-23T12:15:03;4.65;;;3.28;;
53022;SDS011;38913;44.338;11.206;2024-03-23T12:17:32;5.43;;;3.20;;
53022;SDS011;38913;44.338;11.206;2024-03-23T12:20:02;4.95;;;2.90;;
53022;SDS011;38913;44.338;11.206;2024-03-23T12:22:28;4.03;;;2.70;;
53022;SDS011;38913;44.338;11.206;2024-03-23T12:24:56;4.57;;;2.65;;
53022;SDS011;38913;44.338;11.206;2024-03-23T12:27:23;4.95;;;3.40;;
53022;SDS011;38913;44.338;11.206;2024-03-23T12:29:48;3.80;;;2.65;;
53022;SDS011;38913;44.338;11.206;2024-03-23T12:32:14;4.63;;;2.90;;
53022;SDS011;38913;44.338;11.206;2024-03-23T12:34:42;3.33;;;2.42;;
53022;SDS011;38913;44.338;11.206;2024-03-23T12:37:08;5.38;;;2.88;;
53022;SDS011;38913;44.338;11.206;2024-03-23T12:39:34;3.38;;;2.25;;
53022;SDS011;38913;44.338;11.206;2024-03-23T12:42:02;3.63;;;2.40;;
53022;SDS011;38913;44.338;11.206;2024-03-23T12:44:28;3.63;;;2.40;;
53022;SDS011;38913;44.338;11.206;2024-03-23T12:46:54;4.45;;;2.55;;
53022;SDS011;38913;44.338;11.206;2024-03-23T12:49:20;4.07;;;2.08;;
53022;SDS011;38913;44.338;11.206;2024-03-23T12:51:54;5.50;;;2.45;;
53022;SDS011;38913;44.338;11.206;2024-03-23T12:54:25;4.32;;;2.25;;
53022;SDS011;38913;44.338;11.206;2024-03-23T12:56:52;3.17;;;1.98;;
53022;SDS011;38913;44.338;11.206;2024-03-23T12:59:18;3.60;;;1.88;;
53022;SDS011;38913;44.338;11.206;2024-03-23T13:01:45;4.68;;;1.65;;
53022;SDS011;38913;44.338;11.206;2024-03-23T13:04:10;2.45;;;1.60;;
53022;SDS011;38913;44.338;11.206;2024-03-23T13:06:36;3.38;;;1.70;;
53022;SDS011;38913;44.338;11.206;2024-03-23T13:09:02;3.97;;;1.83;;
53022;SDS011;38913;44.338;11.206;2024-03-23T13:11:32;2.45;;;1.67;;
53022;SDS011;38913;44.338;11.206;2024-03-23T13:13:59;4.40;;;2.30;;
53022;SDS011;38913;44.338;11.206;2024-03-23T13:16:24;3.38;;;2.15;;
53022;SDS011;38913;44.338;11.206;2024-03-23T13:18:50;4.13;;;1.85;;
53022;SDS011;38913;44.338;11.206;2024-03-23T13:21:17;3.03;;;1.63;;
53022;SDS011;38913;44.338;11.206;2024-03-23T13:23:47;2.78;;;1.70;;
53022;SDS011;38913;44.338;11.206;2024-03-23T13:26:14;3.13;;;2.30;;
53022;SDS011;38913;44.338;11.206;2024-03-23T13:28:40;4.22;;;2.08;;
53022;SDS011;38913;44.338;11.206;2024-03-23T13:31:08;2.80;;;2.28;;
53022;SDS011;38913;44.338;11.206;2024-03-23T13:33:34;4.38;;;2.20;;
53022;SDS011;38913;44.338;11.206;2024-03-23T13:36:01;3.45;;;1.80;;
53022;SDS011;38913;44.338;11.206;2024-03-23T13:38:30;4.57;;;2.13;;
53022;SDS011;38913;44.338;11.206;2024-03-23T13:40:58;2.92;;;1.95;;
53022;SDS011;38913;44.338;11.206;2024-03-23T13:43:26;4.25;;;2.00;;
53022;SDS011;38913;44.338;11.206;2024-03-23T13:45:56;3.83;;;2.20;;
53022;SDS011;38913;44.338;11.206;2024-03-23T13:48:23;4.75;;;2.40;;
53022;SDS011;38913;44.338;11.206;2024-03-23T13:51:03;3.45;;;2.08;;
53022;SDS011;38913;44.338;11.206;2024-03-23T13:53:32;4.35;;;2.03;;
53022;SDS011;38913;44.338;11.206;2024-03-23T13:55:59;3.33;;;1.70;;
53022;SDS011;38913;44.338;11.206;2024-03-23T13:58:24;2.67;;;2.13;;
53022;SDS011;38913;44.338;11.206;2024-03-23T14:00:56;3.08;;;1.85;;
53022;SDS011;38913;44.338;11.206;2024-03-23T14:03:23;4.95;;;1.90;;
53022;SDS011;38913;44.338;11.206;2024-03-23T14:05:49;3.42;;;2.00;;
53022;SDS011;38913;44.338;11.206;2024-03-23T14:08:18;2.95;;;1.58;;
53022;SDS011;38913;44.338;11.206;2024-03-23T14:10:45;2.70;;;1.13;;
53022;SDS011;38913;44.338;11.206;2024-03-23T14:13:11;3.05;;;1.80;;
53022;SDS011;38913;44.338;11.206;2024-03-23T14:15:39;3.13;;;1.80;;
53022;SDS011;38913;44.338;11.206;2024-03-23T14:18:05;3.00;;;1.25;;
53022;SDS011;38913;44.338;11.206;2024-03-23T14:20:32;2.63;;;1.27;;
53022;SDS011;38913;44.338;11.206;2024-03-23T14:22:58;2.90;;;2.05;;
53022;SDS011;38913;44.338;11.206;2024-03-23T14:25:24;3.53;;;1.45;;
53022;SDS011;38913;44.338;11.206;2024-03-23T14:27:54;3.08;;;1.33;;
53022;SDS011;38913;44.338;11.206;2024-03-23T14:30:21;1.48;;;0.95;;
53022;SDS011;38913;44.338;11.206;2024-03-23T14:32:48;3.15;;;1.33;;
53022;SDS011;38913;44.338;11.206;2024-03-23T14:35:14;2.92;;;1.48;;
53022;SDS011;38913;44.338;11.206;2024-03-23T14:37:41;4.63;;;2.30;;
53022;SDS011;38913;44.338;11.206;2024-03-23T14:40:07;4.13;;;1.60;;
53022;SDS011;38913;44.338;11.206;2024-03-23T14:42:34;4.93;;;2.00;;
53022;SDS011;38913;44.338;11.206;2024-03-23T14:45:00;2.80;;;1.90;;
53022;SDS011;38913;44.338;11.206;2024-03-23T14:47:25;5.63;;;2.35;;
53022;SDS011;38913;44.338;11.206;2024-03-23T14:49:52;4.63;;;2.20;;
53022;SDS011;38913;44.338;11.206;2024-03-23T14:52:19;6.78;;;2.35;;
53022;SDS011;38913;44.338;11.206;2024-03-23T14:54:46;4.20;;;2.08;;
53022;SDS011;38913;44.338;11.206;2024-03-23T14:57:12;4.60;;;2.03;;
53022;SDS011;38913;44.338;11.206;2024-03-23T14:59:38;2.83;;;1.38;;
53022;SDS011;38913;44.338;11.206;2024-03-23T15:02:09;3.08;;;2.00;;
53022;SDS011;38913;44.338;11.206;2024-03-23T15:04:35;5.15;;;2.03;;
53022;SDS011;38913;44.338;11.206;2024-03-23T15:07:03;5.22;;;2.15;;
53022;SDS011;38913;44.338;11.206;2024-03-23T15:09:30;5.68;;;2.10;;
53022;SDS011;38913;44.338;11.206;2024-03-23T15:11:59;4.75;;;2.45;;
53022;SDS011;38913;44.338;11.206;2024-03-23T15:14:24;5.47;;;2.33;;
53022;SDS011;38913;44.338;11.206;2024-03-23T15:16:51;3.85;;;2.00;;
53022;SDS011;38913;44.338;11.206;2024-03-23T15:19:18;5.18;;;2.40;;
53022;SDS011;38913;44.338;11.206;2024-03-23T15:21:44;6.13;;;2.30;;
53022;SDS011;38913;44.338;11.206;2024-03-23T15:24:10;7.00;;;2.08;;
53022;SDS011;38913;44.338;11.206;2024-03-23T15:26:38;4.72;;;2.20;;
53022;SDS011;38913;44.338;11.206;2024-03-23T15:29:03;3.78;;;1.90;;
53022;SDS011;38913;44.338;11.206;2024-03-23T15:31:36;6.65;;;2.65;;
53022;SDS011;38913;44.338;11.206;2024-03-23T15:34:03;5.40;;;2.15;;
53022;SDS011;38913;44.338;11.206;2024-03-23T15:36:30;7.35;;;2.33;;
53022;SDS011;38913;44.338;11.206;2024-03-23T15:38:57;4.20;;;2.30;;